createdAt,value
2023-07-19T00:00:08.479Z,80.98
2023-07-19T00:02:40.855Z,81.28
2023-07-19T00:05:09.289Z,81.44
2023-07-19T00:07:36.348Z,81.54
2023-07-19T00:10:04.663Z,81.30
2023-07-19T00:12:46.107Z,80.99
2023-07-19T00:15:18.167Z,80.61
2023-07-19T00:17:45.732Z,80.63
2023-07-19T00:20:13.183Z,81.20
2023-07-19T00:22:40.206Z,81.53
2023-07-19T00:25:07.692Z,81.58
2023-07-19T00:27:34.591Z,81.29
2023-07-19T00:30:01.502Z,80.89
2023-07-19T00:32:28.470Z,80.81
2023-07-19T00:34:55.388Z,80.80
2023-07-19T00:37:22.417Z,80.47
2023-07-19T00:39:49.817Z,80.20
2023-07-19T00:42:16.633Z,80.21
2023-07-19T00:44:43.735Z,80.20
2023-07-19T00:47:10.903Z,80.63
2023-07-19T00:49:41.517Z,80.79
2023-07-19T00:52:09.607Z,80.93
2023-07-19T00:54:37.821Z,80.73
2023-07-19T00:57:08.365Z,80.53
2023-07-19T00:59:35.546Z,80.68
2023-07-19T01:02:03.099Z,80.77
2023-07-19T01:04:31.034Z,80.79
2023-07-19T01:06:58.409Z,80.59
2023-07-19T01:09:26.955Z,80.47
2023-07-19T01:11:54.170Z,80.47
2023-07-19T01:14:21.021Z,80.53
2023-07-19T01:16:47.873Z,80.58
2023-07-19T01:19:16.576Z,80.67
2023-07-19T01:21:43.471Z,80.94
2023-07-19T01:24:10.337Z,81.00
2023-07-19T01:26:37.161Z,81.04
2023-07-19T01:29:04.212Z,81.37
2023-07-19T01:31:31.070Z,81.40
2023-07-19T01:33:58.018Z,81.05
2023-07-19T01:36:25.390Z,80.79
2023-07-19T01:38:53.387Z,80.90
2023-07-19T01:41:22.120Z,81.06
2023-07-19T01:43:49.217Z,80.93
2023-07-19T01:46:16.870Z,80.85
2023-07-19T01:48:43.940Z,81.24
2023-07-19T01:51:10.851Z,81.91
2023-07-19T01:53:37.854Z,82.39
2023-07-19T01:56:04.976Z,82.65
2023-07-19T01:58:31.942Z,82.87
2023-07-19T02:00:59.577Z,82.78
2023-07-19T02:03:26.626Z,82.37
2023-07-19T02:05:58.193Z,81.99
2023-07-19T02:08:25.752Z,81.80
2023-07-19T02:10:52.762Z,81.99
2023-07-19T02:13:19.616Z,81.72
2023-07-19T02:15:47.705Z,81.87
2023-07-19T02:18:14.778Z,82.33
2023-07-19T02:20:45.820Z,82.94
2023-07-19T02:23:13.191Z,83.20
2023-07-19T02:25:42.251Z,83.42
2023-07-19T02:28:09.794Z,83.01
2023-07-19T02:30:36.784Z,82.55
2023-07-19T02:33:03.657Z,82.12
2023-07-19T02:35:30.970Z,82.00
2023-07-19T02:37:57.865Z,81.92
2023-07-19T02:40:24.830Z,81.89
2023-07-19T02:42:51.809Z,81.73
2023-07-19T02:45:18.693Z,81.70
2023-07-19T02:47:45.526Z,81.66
2023-07-19T02:50:12.569Z,81.29
2023-07-19T02:52:39.629Z,81.49
2023-07-19T02:55:06.703Z,81.44
2023-07-19T02:57:33.657Z,81.27
2023-07-19T03:00:00.641Z,81.67
2023-07-19T03:02:27.507Z,82.01
2023-07-19T03:04:54.407Z,82.19
2023-07-19T03:07:22.713Z,82.14
2023-07-19T03:09:49.517Z,82.26
2023-07-19T03:12:16.480Z,82.00
2023-07-19T03:14:44.029Z,81.70
2023-07-19T03:17:11.328Z,81.60
2023-07-19T03:19:38.393Z,81.51
2023-07-19T03:22:05.841Z,81.96
2023-07-19T03:24:32.992Z,82.41
2023-07-19T03:26:59.824Z,82.74
2023-07-19T03:29:26.918Z,82.70
2023-07-19T03:31:53.816Z,82.65
2023-07-19T03:34:22.332Z,83.04
2023-07-19T03:36:49.121Z,82.94
2023-07-19T03:39:16.756Z,83.32
2023-07-19T03:41:43.591Z,83.51
2023-07-19T03:44:10.886Z,83.64
2023-07-19T03:46:38.699Z,83.62
2023-07-19T06:10:46.942Z,56.23
2023-07-19T07:18:45.843Z,38.83
2023-07-19T13:34:44.467Z,26.08
2023-07-19T13:38:15.096Z,23.96
2023-07-19T13:48:56.000Z,23.82
2023-07-19T13:52:19.332Z,23.75
2023-07-19T14:00:24.483Z,22.67
2023-07-19T14:05:08.976Z,22.48
2023-07-19T14:07:25.160Z,22.45
2023-07-19T14:13:09.932Z,25.37
2023-07-19T14:19:16.974Z,25.49
2023-07-19T14:35:04.833Z,28.11
2023-07-19T14:42:09.072Z,29.64
2023-07-19T14:44:41.704Z,30.24
2023-07-19T14:48:15.867Z,29.96
2023-07-19T14:57:57.640Z,31.53
2023-07-19T15:03:03.636Z,30.58
2023-07-19T15:05:37.554Z,31.51
2023-07-19T15:08:06.080Z,31.38
2023-07-19T15:10:33.364Z,31.28
2023-07-19T15:13:39.566Z,31.15
2023-07-19T15:16:20.472Z,31.98
2023-07-19T15:18:50.525Z,32.24
2023-07-19T15:24:33.275Z,31.15
2023-07-19T15:27:20.547Z,31.88
2023-07-19T15:29:47.405Z,30.50
2023-07-19T15:32:14.292Z,30.60
2023-07-19T15:34:41.115Z,30.92
2023-07-19T15:37:07.937Z,31.41
2023-07-19T15:39:34.811Z,31.13
2023-07-19T15:42:02.549Z,31.53
2023-07-19T15:44:36.325Z,30.81
2023-07-19T15:47:04.893Z,31.27
2023-07-19T15:49:32.106Z,31.12
2023-07-19T15:51:59.859Z,30.95
2023-07-19T15:54:26.954Z,31.66
2023-07-19T15:56:54.843Z,32.24
2023-07-19T15:59:21.865Z,32.33
2023-07-19T16:01:48.938Z,32.48
2023-07-19T16:04:16.288Z,32.88
2023-07-19T16:06:43.426Z,32.02
2023-07-19T16:09:10.241Z,31.79
2023-07-19T16:11:37.288Z,31.84
2023-07-19T16:14:07.393Z,30.72
2023-07-19T16:16:37.358Z,30.65
2023-07-19T16:19:04.262Z,31.04
2023-07-19T16:21:31.202Z,32.66
2023-07-19T16:23:58.347Z,31.69
2023-07-19T16:26:25.641Z,32.07
2023-07-19T16:28:52.689Z,30.96
2023-07-19T16:31:21.028Z,31.13
2023-07-19T16:33:48.268Z,31.34
2023-07-19T16:36:15.292Z,31.86
2023-07-19T16:38:42.267Z,32.12
2023-07-19T16:41:09.369Z,31.97
2023-07-19T16:43:36.226Z,32.98
2023-07-19T16:46:03.782Z,33.31
2023-07-19T16:48:32.962Z,33.71
2023-07-19T16:50:59.873Z,34.13
2023-07-19T16:53:26.729Z,33.56
2023-07-19T16:55:53.540Z,33.66
2023-07-19T16:58:20.825Z,33.71
2023-07-19T17:00:47.969Z,33.49
2023-07-19T17:03:14.948Z,33.72
2023-07-19T17:05:41.963Z,34.30
2023-07-19T17:08:08.831Z,34.38
2023-07-19T17:10:36.110Z,34.51
2023-07-19T17:13:04.629Z,35.14
2023-07-19T17:15:31.768Z,34.94
2023-07-19T17:18:00.400Z,34.97
2023-07-19T17:20:28.889Z,35.12
2023-07-19T17:22:56.346Z,34.98
2023-07-19T17:25:23.250Z,35.00
2023-07-19T17:27:50.174Z,35.25
2023-07-19T17:30:17.215Z,35.85
2023-07-19T17:32:45.860Z,36.11
2023-07-19T17:35:16.412Z,36.12
2023-07-19T17:37:43.223Z,35.85
2023-07-19T17:40:11.750Z,36.16
2023-07-19T17:42:39.416Z,37.53
2023-07-19T17:45:08.611Z,37.47
2023-07-19T17:47:35.477Z,37.23
2023-07-19T17:50:02.309Z,38.71
2023-07-19T17:52:30.733Z,39.39
2023-07-19T17:54:58.199Z,39.27
2023-07-19T17:57:25.160Z,39.84
2023-07-19T17:59:52.003Z,39.69
2023-07-19T18:02:20.702Z,40.00
2023-07-19T18:04:48.241Z,40.94
2023-07-19T18:07:15.286Z,42.10
2023-07-19T18:09:43.044Z,43.24
2023-07-19T18:12:11.473Z,43.58
2023-07-19T18:14:38.428Z,44.38
2023-07-19T18:17:07.101Z,45.53
2023-07-19T18:19:34.818Z,46.91
2023-07-19T18:22:04.408Z,48.66
2023-07-19T18:24:33.257Z,48.65
2023-07-19T18:27:01.098Z,49.53
2023-07-19T18:29:28.142Z,52.17
2023-07-19T18:31:55.156Z,53.03
2023-07-19T18:34:22.116Z,53.45
2023-07-19T18:36:50.308Z,53.69
2023-07-19T18:39:17.452Z,54.31
2023-07-19T18:41:44.640Z,55.27
2023-07-19T18:44:11.531Z,55.55
2023-07-19T18:46:38.573Z,55.44
2023-07-19T18:49:05.528Z,55.45
2023-07-19T18:51:32.526Z,56.16
2023-07-19T18:53:59.477Z,57.03
2023-07-19T18:56:28.745Z,58.04
2023-07-19T18:58:55.897Z,57.95
2023-07-19T19:01:23.377Z,58.94
2023-07-19T19:03:50.934Z,60.11
2023-07-19T19:06:18.299Z,60.21
2023-07-19T19:08:45.128Z,60.50
2023-07-19T19:11:12.364Z,60.35
2023-07-19T19:13:39.215Z,60.61
2023-07-19T19:16:06.143Z,61.07
2023-07-19T19:18:33.435Z,62.71
2023-07-19T19:21:00.783Z,63.28
2023-07-19T19:23:29.562Z,63.26
2023-07-19T19:25:56.486Z,63.73
2023-07-19T19:28:23.421Z,63.76
2023-07-19T19:30:51.139Z,64.42
2023-07-19T19:33:18.146Z,64.77
2023-07-19T19:35:45.160Z,65.29
2023-07-19T19:38:12.066Z,65.95
2023-07-19T19:40:38.995Z,66.38
2023-07-19T19:43:05.889Z,66.46
2023-07-19T19:45:32.838Z,66.69
2023-07-19T19:47:59.737Z,66.95
2023-07-19T19:50:28.169Z,67.18
2023-07-19T19:53:09.404Z,67.03
2023-07-19T19:58:07.752Z,67.28
2023-07-19T20:00:35.679Z,67.66
2023-07-19T20:08:02.586Z,69.17
2023-07-19T20:10:29.754Z,69.95
2023-07-19T20:12:56.849Z,71.60
2023-07-19T20:15:23.768Z,71.92
2023-07-19T20:17:50.799Z,71.99
2023-07-19T20:20:22.519Z,71.85
2023-07-19T20:22:51.481Z,71.53
2023-07-19T20:25:32.612Z,71.71
2023-07-19T20:28:06.385Z,72.05
2023-07-19T20:30:44.129Z,71.83
2023-07-19T20:33:18.633Z,72.31
2023-07-19T20:43:16.579Z,72.43
2023-07-19T20:45:43.517Z,73.07
2023-07-19T20:48:10.513Z,73.11
2023-07-19T20:50:37.506Z,73.35
2023-07-19T20:53:04.331Z,73.38
2023-07-19T20:55:33.104Z,73.38
2023-07-19T20:58:00.144Z,73.24
2023-07-19T21:00:27.068Z,73.63
2023-07-19T21:02:54.143Z,73.45
2023-07-19T21:05:21.138Z,73.27
2023-07-19T21:07:48.036Z,73.25
2023-07-19T21:10:16.498Z,73.21
2023-07-19T21:12:43.379Z,73.39
2023-07-19T21:15:11.892Z,73.06
2023-07-19T21:17:40.448Z,73.50
2023-07-19T21:20:08.067Z,74.34
2023-07-19T21:22:35.194Z,74.21
2023-07-19T21:27:32.821Z,73.86
2023-07-19T21:29:59.817Z,74.50
2023-07-19T21:32:26.680Z,73.63
2023-07-19T21:34:53.727Z,75.15
2023-07-19T21:37:21.715Z,75.89
2023-07-19T21:39:49.416Z,76.46
2023-07-19T21:42:16.760Z,76.87
2023-07-19T21:44:43.920Z,77.27
2023-07-19T21:47:10.934Z,78.27
2023-07-19T21:49:37.859Z,78.82
2023-07-19T21:52:05.830Z,79.05
2023-07-19T21:54:32.741Z,79.19
2023-07-19T21:56:59.612Z,79.51
2023-07-19T21:59:26.693Z,80.06
2023-07-19T22:01:53.542Z,80.36
2023-07-19T22:04:20.525Z,80.61
2023-07-19T22:06:47.474Z,81.07
2023-07-19T22:09:15.246Z,81.66
2023-07-19T22:11:42.708Z,81.92
2023-07-19T22:14:11.228Z,81.86
2023-07-19T22:16:39.281Z,81.51
2023-07-19T22:19:06.407Z,81.52
2023-07-19T22:21:33.225Z,81.54
2023-07-19T22:24:00.051Z,81.47
2023-07-19T22:26:26.977Z,81.47
2023-07-19T22:29:02.743Z,80.34
2023-07-19T22:31:30.209Z,80.37
2023-07-19T22:33:57.441Z,80.04
2023-07-19T22:36:24.613Z,79.08
2023-07-19T22:38:51.787Z,78.57
2023-07-19T22:41:18.636Z,78.40
2023-07-19T22:43:45.455Z,78.42
2023-07-19T22:46:12.460Z,78.68
2023-07-19T22:48:39.428Z,79.78
2023-07-19T22:51:06.489Z,80.53
2023-07-19T22:53:33.883Z,80.66
2023-07-19T22:56:02.832Z,80.84
2023-07-19T22:58:30.213Z,80.81
2023-07-19T23:00:58.542Z,80.65
2023-07-19T23:03:26.029Z,80.18
2023-07-19T23:05:53.898Z,79.55
2023-07-19T23:08:21.087Z,78.93
2023-07-19T23:10:48.259Z,79.12
2023-07-19T23:13:15.337Z,79.31
2023-07-19T23:15:43.388Z,79.82
2023-07-19T23:18:10.366Z,79.86
2023-07-19T23:20:38.690Z,79.50
2023-07-19T23:23:05.748Z,79.54
2023-07-19T23:25:32.662Z,80.09
2023-07-19T23:28:02.073Z,80.24
2023-07-19T23:30:29.304Z,80.46
2023-07-19T23:32:58.643Z,80.88
2023-07-19T23:35:25.585Z,81.06
2023-07-19T23:37:53.544Z,81.37
2023-07-19T23:40:20.409Z,81.25
2023-07-19T23:42:47.243Z,81.04
2023-07-19T23:45:14.029Z,80.64
2023-07-19T23:47:41.148Z,80.63
2023-07-19T23:50:08.530Z,80.46
2023-07-19T23:52:35.484Z,80.44
2023-07-19T23:55:04.594Z,80.84
2023-07-19T23:57:31.366Z,81.03
2023-07-19T23:59:58.239Z,81.25
